Terminal Aerodrome Forecast
Issued by NWS

Home | Current Version | Previous Version | Text Only | Print | Product List | Glossary On
Versions: 1 2 3 4 5 6 7 8 9 10 11 12 13 14 15 16 17 18 19 20 21
000
FTUS43 KMKX 260852 AAA
TAFUES
TAF AMD
KUES 260852Z 2609/2706 VRB04KT P6SM FEW080 SCT200
     FM261400 22004KT P6SM FEW050 SCT200
     FM261900 25008KT P6SM VCSH FEW040 SCT070 BKN100
     FM270100 30008KT P6SM SCT020 BKN060=

USA.gov is the U.S. government's official web portal to all federal, state and local government web resources and services.